Portada
METAR-TAF:

METAR-TAF

Aeroports :

Irkutsk, Rússia

latitud: 52-16N, longitud: 104-19E, altitud: 513 m

Observació

L'informe es va fer fa 37 minuts, a les 10:30 UTC
Vent 2 kt del Sud/Sud-Est
Temperatura -9°C
Humitat 48%
Pressió 1023 hPa
Visibilitat 10 km o més
sense núvols per sota de 1500 mi sense presència de cumulonimbus.

METAR: UIII 201030Z 15001MPS CAVOK M09/M18 Q1023 R30/CLRD60 NOSIG RMK QFE722/0963

Hora: 19:07 (11:07 UTC)

Pronòstic

L'informe es va fer fa 3 hores i 7 minuts, a les 08:00 UTC
Pronòstic vàlid del 20 a les 09 UTC al 21 a les 09 UTC
Vent 6 kt del Nord-Oest
Visibilitat 10 km o més
Núvols disperses a una alçada de 2000 ft
Temporalment
l' 20 a les 09 UTC al 21 a les 06 UTC
Visibilitat: 2500 m
neu, fum

TAF: UIII 200800Z 2009/2109 32003MPS 9999 SCT020 TEMPO 2009/2106 2500 -SN FU

Observacions i pronòstics meteorològics de més de 4000 aeroports (METAR i TAF).

Les estacions disponibles són els punts grocs i vermells al mapa.

Posi el ratolí al punt desitjat per veure el nom de l'estació.

Feu clic per veure les observacions i els pronòstics meteorològics.

Per canviar el mapa: feu clic els botons verds amb una creu de color negre per apropar; al botó verd amb un guió per allunyar la imatge; o en les fletxes verdes per a mapes adjacents.


METAR-TAF: